Time;durP1;ratioP1;P1;durP2;ratioP2;P2;SDS_P1;SDS_P2;PMS_P1;PMS_P2;Temp;Humidity;BMP_temperature;BMP_pressure;BME280_temperature;BME280_humidity;BME280_pressure;Samples;Min_cycle;Max_cycle;Signal;HPM_P1;HPM_P2
2022/10/27 00:00:35;;;;;;;22.25;7.97;;;;;;;;;;5091002;28;20038;-79
2022/10/27 00:03:01;;;;;;;22.95;7.38;;;;;;;;;;5090083;28;20024;-79
2022/10/27 00:05:26;;;;;;;22.42;7.68;;;;;;;;;;5090498;28;20120;-79
2022/10/27 00:07:52;;;;;;;28.60;7.97;;;;;;;;;;5090319;28;20111;-80
2022/10/27 00:10:18;;;;;;;28.13;8.10;;;;;;;;;;5090580;28;20024;-80
2022/10/27 00:12:43;;;;;;;22.17;7.38;;;;;;;;;;5089914;28;20032;-79
2022/10/27 00:15:10;;;;;;;26.55;7.90;;;;;;;;;;5090734;28;20467;-79
2022/10/27 00:17:36;;;;;;;30.42;7.85;;;;;;;;;;5090082;28;20043;-80
2022/10/27 00:20:02;;;;;;;26.25;7.70;;;;;;;;;;5090817;28;20024;-81
2022/10/27 00:22:27;;;;;;;23.13;7.70;;;;;;;;;;5090010;28;20089;-78
2022/10/27 00:24:53;;;;;;;31.35;8.02;;;;;;;;;;5089063;28;20024;-78
2022/10/27 00:27:19;;;;;;;29.98;8.02;;;;;;;;;;5089596;28;20062;-79
2022/10/27 00:29:44;;;;;;;23.30;7.45;;;;;;;;;;5072270;28;20555;-78
2022/10/27 00:32:10;;;;;;;25.92;7.95;;;;;;;;;;5071637;28;20035;-78
2022/10/27 00:34:35;;;;;;;25.00;7.45;;;;;;;;;;5090068;28;20028;-78
2022/10/27 00:37:01;;;;;;;24.08;8.23;;;;;;;;;;5089867;28;20103;-79
2022/10/27 00:39:26;;;;;;;32.25;8.60;;;;;;;;;;5088785;28;20020;-79
2022/10/27 00:41:51;;;;;;;32.42;8.63;;;;;;;;;;5089833;28;20503;-79
2022/10/27 00:44:29;;;;;;;31.42;8.18;;;;;;;;;;5090082;28;20035;-79
2022/10/27 00:46:57;;;;;;;26.40;8.23;;;;;;;;;;5089940;28;20107;-78
2022/10/27 00:49:31;;;;;;;23.30;7.50;;;;;;;;;;5071726;28;20028;-79
2022/10/27 00:52:01;;;;;;;23.67;7.65;;;;;;;;;;5089681;28;20066;-79
2022/10/27 00:54:32;;;;;;;31.08;8.10;;;;;;;;;;5071630;28;20047;-79
2022/10/27 00:56:58;;;;;;;31.67;7.68;;;;;;;;;;5089904;28;20103;-79
2022/10/27 00:59:24;;;;;;;24.40;8.07;;;;;;;;;;5089736;28;20107;-79
2022/10/27 01:01:50;;;;;;;25.55;8.13;;;;;;;;;;5089599;28;20031;-79
2022/10/27 01:04:36;;;;;;;25.25;7.90;;;;;;;;;;5089750;28;20062;-79
2022/10/27 01:07:01;;;;;;;27.63;8.25;;;;;;;;;;5089809;28;20028;-79
2022/10/27 01:09:28;;;;;;;28.35;8.07;;;;;;;;;;5089546;28;20027;-78
2022/10/27 01:11:53;;;;;;;23.52;8.15;;;;;;;;;;5089459;28;20402;-78
2022/10/27 01:14:21;;;;;;;30.33;7.97;;;;;;;;;;5090359;28;20107;-79
2022/10/27 01:16:53;;;;;;;24.85;7.90;;;;;;;;;;5093907;28;20016;-79
2022/10/27 01:19:46;;;;;;;26.95;8.57;;;;;;;;;;5075385;28;20032;-78
2022/10/27 01:22:35;;;;;;;30.05;8.75;;;;;;;;;;5093412;28;20101;-79
2022/10/27 01:25:31;;;;;;;30.33;8.35;;;;;;;;;;5093456;28;20032;-79
2022/10/27 01:28:05;;;;;;;23.95;7.32;;;;;;;;;;5093359;28;20111;-78
2022/10/27 01:30:47;;;;;;;30.58;8.05;;;;;;;;;;5093594;28;20555;-79
2022/10/27 01:33:24;;;;;;;25.98;8.07;;;;;;;;;;5074648;28;20390;-80
2022/10/27 01:36:18;;;;;;;28.05;8.63;;;;;;;;;;5093391;28;20028;-80
2022/10/27 01:39:20;;;;;;;24.35;7.72;;;;;;;;;;5093164;28;20082;-80
2022/10/27 01:42:08;;;;;;;25.92;8.25;;;;;;;;;;5074703;28;20054;-79
2022/10/27 01:44:39;;;;;;;24.40;7.63;;;;;;;;;;5092980;28;20012;-80
2022/10/27 01:47:06;;;;;;;22.63;8.25;;;;;;;;;;5093161;28;20032;-79
2022/10/27 01:49:36;;;;;;;32.47;8.30;;;;;;;;;;5092810;28;20034;-79
2022/10/27 01:52:07;;;;;;;25.00;7.70;;;;;;;;;;5093089;28;20027;-80
2022/10/27 01:54:34;;;;;;;22.75;7.32;;;;;;;;;;5089483;28;20048;-80
2022/10/27 01:57:18;;;;;;;25.73;7.50;;;;;;;;;;5093250;28;20483;-79
2022/10/27 02:00:02;;;;;;;29.27;7.47;;;;;;;;;;5092601;28;20055;-79
2022/10/27 02:02:39;;;;;;;27.98;7.72;;;;;;;;;;5092788;28;20024;-78
2022/10/27 02:05:16;;;;;;;24.65;8.32;;;;;;;;;;5092708;28;20028;-79
2022/10/27 02:07:57;;;;;;;24.75;7.43;;;;;;;;;;5074590;28;20024;-78
2022/10/27 02:10:37;;;;;;;;;;;;;;;;;;5074922;28;20035;-78
2022/10/27 02:13:03;;;;;;;19.83;6.85;;;;;;;;;;5092317;28;19961;-78
2022/10/27 02:15:38;;;;;;;26.55;7.68;;;;;;;;;;5092286;28;20035;-78
2022/10/27 02:18:08;;;;;;;23.40;7.03;;;;;;;;;;5092484;28;20047;-78
2022/10/27 02:20:40;;;;;;;21.10;6.90;;;;;;;;;;5092613;28;20475;-78
2022/10/27 02:23:08;;;;;;;22.60;7.47;;;;;;;;;;5092308;28;20035;-79
2022/10/27 02:25:55;;;;;;;23.10;7.15;;;;;;;;;;5092423;28;20020;-79
2022/10/27 02:28:28;;;;;;;24.75;7.05;;;;;;;;;;5073819;28;20043;-80
2022/10/27 02:30:57;;;;;;;22.38;7.40;;;;;;;;;;5092453;28;20024;-79
2022/10/27 02:33:24;;;;;;;26.60;7.40;;;;;;;;;;5091891;28;20016;-79
2022/10/27 02:35:51;;;;;;;18.05;7.05;;;;;;;;;;5092303;28;20013;-80
2022/10/27 02:38:20;;;;;;;25.30;7.68;;;;;;;;;;5091881;28;20032;-78
2022/10/27 02:40:46;;;;;;;17.60;6.45;;;;;;;;;;5092237;28;20119;-80
2022/10/27 02:43:11;;;;;;;28.58;7.32;;;;;;;;;;5091813;28;20095;-80
2022/10/27 02:45:37;;;;;;;26.08;7.72;;;;;;;;;;5091915;28;20119;-80
2022/10/27 02:48:02;;;;;;;22.00;7.47;;;;;;;;;;5090959;28;20043;-77
2022/10/27 02:50:28;;;;;;;25.20;7.80;;;;;;;;;;5090299;28;20032;-78
2022/10/27 02:52:53;;;;;;;22.65;7.63;;;;;;;;;;5091558;28;20028;-78
2022/10/27 02:55:18;;;;;;;26.00;7.20;;;;;;;;;;5091522;28;20097;-80
2022/10/27 02:57:45;;;;;;;27.15;7.70;;;;;;;;;;5091744;28;20454;-78
2022/10/27 03:00:12;;;;;;;23.67;7.20;;;;;;;;;;5091579;28;20028;-77
2022/10/27 03:02:37;;;;;;;23.55;7.28;;;;;;;;;;5091548;28;20063;-77
2022/10/27 03:05:03;;;;;;;20.70;8.00;;;;;;;;;;5091538;28;20056;-77
2022/10/27 03:07:29;;;;;;;20.50;7.28;;;;;;;;;;5091604;28;20028;-77
2022/10/27 03:09:54;;;;;;;22.92;7.80;;;;;;;;;;5091276;28;20046;-78
2022/10/27 03:12:19;;;;;;;27.98;7.55;;;;;;;;;;5091119;28;20039;-80
2022/10/27 03:14:45;;;;;;;20.67;6.95;;;;;;;;;;5091373;28;20103;-79
2022/10/27 03:17:10;;;;;;;24.17;8.13;;;;;;;;;;5091429;28;20024;-79
2022/10/27 03:19:36;;;;;;;25.77;7.60;;;;;;;;;;5094130;28;20020;-81
2022/10/27 03:22:01;;;;;;;26.63;7.47;;;;;;;;;;5091778;28;20471;-80
2022/10/27 03:24:26;;;;;;;23.38;7.90;;;;;;;;;;5091020;28;20099;-83
2022/10/27 03:26:52;;;;;;;20.27;7.75;;;;;;;;;;5091113;28;20016;-82
2022/10/27 03:29:18;;;;;;;23.45;7.10;;;;;;;;;;5090687;28;20194;-81
2022/10/27 03:31:43;;;;;;;25.95;8.10;;;;;;;;;;5091158;28;20020;-82
2022/10/27 03:34:08;;;;;;;23.48;7.95;;;;;;;;;;5091058;28;20394;-83
2022/10/27 03:36:34;;;;;;;20.77;7.53;;;;;;;;;;5090685;28;20510;-81
2022/10/27 03:38:59;;;;;;;31.58;7.95;;;;;;;;;;5090683;28;20032;-83
2022/10/27 03:41:25;;;;;;;19.40;7.63;;;;;;;;;;5091016;28;20031;-82
2022/10/27 03:43:50;;;;;;;25.95;7.65;;;;;;;;;;5090577;28;20017;-82
2022/10/27 03:46:16;;;;;;;22.98;7.40;;;;;;;;;;5090812;28;20030;-82
2022/10/27 03:48:41;;;;;;;22.85;7.55;;;;;;;;;;5090795;28;20120;-82
2022/10/27 03:51:07;;;;;;;23.33;7.72;;;;;;;;;;5074643;28;20024;-81
2022/10/27 03:53:32;;;;;;;29.23;8.32;;;;;;;;;;5072435;28;20122;-81
2022/10/27 03:55:58;;;;;;;34.03;8.30;;;;;;;;;;5090575;28;20072;-81
2022/10/27 03:58:23;;;;;;;23.67;7.80;;;;;;;;;;5090645;28;20400;-81
2022/10/27 04:00:48;;;;;;;20.55;7.70;;;;;;;;;;5090339;28;20024;-81
2022/10/27 04:03:14;;;;;;;24.10;8.02;;;;;;;;;;5090412;28;20024;-81
2022/10/27 04:05:39;;;;;;;25.38;8.07;;;;;;;;;;5090437;28;20039;-80
2022/10/27 04:08:05;;;;;;;27.58;7.45;;;;;;;;;;5089251;28;20036;-81
2022/10/27 04:10:30;;;;;;;24.17;8.27;;;;;;;;;;5090279;28;20111;-81
2022/10/27 04:12:56;;;;;;;20.85;7.80;;;;;;;;;;5090190;28;20036;-81
2022/10/27 04:15:24;;;;;;;20.30;7.78;;;;;;;;;;5090188;28;20054;-80
2022/10/27 04:17:57;;;;;;;19.08;7.43;;;;;;;;;;5090494;28;20112;-81
2022/10/27 04:20:24;;;;;;;26.70;7.78;;;;;;;;;;5090100;28;20544;-81
2022/10/27 04:22:49;;;;;;;20.98;7.65;;;;;;;;;;5090255;28;20024;-81
2022/10/27 04:25:15;;;;;;;27.05;7.88;;;;;;;;;;5088677;28;20020;-81
2022/10/27 04:27:40;;;;;;;18.50;7.95;;;;;;;;;;5089929;28;20077;-81
2022/10/27 04:30:06;;;;;;;24.00;7.47;;;;;;;;;;5090059;28;20024;-81
2022/10/27 04:32:31;;;;;;;24.27;7.55;;;;;;;;;;5090155;28;20055;-81
2022/10/27 04:34:57;;;;;;;19.27;7.60;;;;;;;;;;5089747;28;20055;-80
2022/10/27 04:37:22;;;;;;;24.13;7.60;;;;;;;;;;5090200;28;20604;-81
2022/10/27 04:39:48;;;;;;;24.88;7.63;;;;;;;;;;5089954;28;20468;-81
2022/10/27 04:42:13;;;;;;;21.90;8.05;;;;;;;;;;5089955;28;20141;-82
2022/10/27 04:44:39;;;;;;;21.73;7.38;;;;;;;;;;5089918;28;20016;-80
2022/10/27 04:47:04;;;;;;;22.83;7.25;;;;;;;;;;5090112;28;20028;-80
2022/10/27 04:49:30;;;;;;;25.10;7.88;;;;;;;;;;5091050;28;20107;-80
2022/10/27 04:51:55;;;;;;;23.02;7.60;;;;;;;;;;5094236;28;20020;-81
2022/10/27 04:54:21;;;;;;;24.15;7.30;;;;;;;;;;5093900;28;20515;-80
2022/10/27 04:56:46;;;;;;;22.48;7.65;;;;;;;;;;5093909;28;20081;-82
2022/10/27 04:59:12;;;;;;;27.98;8.00;;;;;;;;;;5094364;28;20372;-79
2022/10/27 05:01:38;;;;;;;22.23;7.18;;;;;;;;;;5093945;28;20103;-81
2022/10/27 05:04:03;;;;;;;23.17;7.70;;;;;;;;;;5094162;28;20467;-82
2022/10/27 05:06:29;;;;;;;22.15;7.90;;;;;;;;;;5093765;28;20111;-82
2022/10/27 05:08:54;;;;;;;21.70;7.65;;;;;;;;;;5093945;28;20468;-81
2022/10/27 05:11:20;;;;;;;23.58;7.95;;;;;;;;;;5093726;28;20020;-81
2022/10/27 05:13:49;;;;;;;21.83;7.95;;;;;;;;;;5093565;28;20039;-81
2022/10/27 05:16:15;;;;;;;21.98;7.55;;;;;;;;;;5093503;28;20028;-81
2022/10/27 05:18:40;;;;;;;24.73;7.95;;;;;;;;;;5093770;28;20020;-81
2022/10/27 05:21:06;;;;;;;26.33;8.38;;;;;;;;;;5093583;28;20043;-81
2022/10/27 05:23:31;;;;;;;24.45;7.43;;;;;;;;;;5093608;28;20020;-81
2022/10/27 05:25:56;;;;;;;30.90;8.10;;;;;;;;;;5093385;28;20048;-81
2022/10/27 05:28:22;;;;;;;22.75;7.53;;;;;;;;;;5093238;28;20471;-81
2022/10/27 05:30:48;;;;;;;22.95;7.43;;;;;;;;;;5093391;28;20028;-81
2022/10/27 05:33:14;;;;;;;27.98;7.45;;;;;;;;;;5093396;28;20100;-80
2022/10/27 05:35:40;;;;;;;24.27;7.65;;;;;;;;;;5093368;28;20479;-80
2022/10/27 05:38:05;;;;;;;20.60;7.55;;;;;;;;;;5093424;28;20394;-81
2022/10/27 05:40:33;;;;;;;23.65;7.38;;;;;;;;;;5093150;28;20028;-81
2022/10/27 05:43:00;;;;;;;23.45;7.47;;;;;;;;;;5093146;28;20020;-81
2022/10/27 05:45:26;;;;;;;21.75;7.72;;;;;;;;;;5074900;28;20031;-81
2022/10/27 05:48:05;;;;;;;27.25;7.35;;;;;;;;;;5093080;28;20028;-81
2022/10/27 05:50:32;;;;;;;28.98;8.65;;;;;;;;;;5092787;28;20055;-81
2022/10/27 05:52:58;;;;;;;27.35;7.85;;;;;;;;;;5093203;28;20036;-81
2022/10/27 05:55:23;;;;;;;20.05;7.63;;;;;;;;;;5092732;28;20081;-81
2022/10/27 05:57:56;;;;;;;28.95;8.20;;;;;;;;;;5092845;28;20028;-80
2022/10/27 06:00:23;;;;;;;20.52;7.07;;;;;;;;;;5092546;28;20048;-80
2022/10/27 06:02:49;;;;;;;19.30;7.45;;;;;;;;;;5092707;28;20028;-81
2022/10/27 06:05:15;;;;;;;23.40;7.43;;;;;;;;;;5095099;28;20051;-81
2022/10/27 06:07:40;;;;;;;25.42;7.97;;;;;;;;;;5092507;28;20024;-81
2022/10/27 06:10:06;;;;;;;20.58;7.60;;;;;;;;;;5092750;28;20111;-80
2022/10/27 06:12:31;;;;;;;21.67;7.10;;;;;;;;;;5092387;28;20023;-80
2022/10/27 06:14:57;;;;;;;23.08;7.25;;;;;;;;;;5092538;28;20107;-80
2022/10/27 06:17:22;;;;;;;29.70;7.88;;;;;;;;;;5092506;28;20017;-78
2022/10/27 06:19:47;;;;;;;24.25;7.32;;;;;;;;;;5092637;28;20062;-80
2022/10/27 06:22:13;;;;;;;21.17;7.75;;;;;;;;;;5092489;28;20582;-80
2022/10/27 06:24:39;;;;;;;23.73;7.70;;;;;;;;;;5092180;28;20020;-84
2022/10/27 06:27:04;;;;;;;29.02;7.95;;;;;;;;;;5092187;28;20039;-79
2022/10/27 06:29:30;;;;;;;28.08;7.78;;;;;;;;;;5092399;28;20089;-79
2022/10/27 06:31:55;;;;;;;22.92;7.40;;;;;;;;;;5092335;28;20035;-77
2022/10/27 06:34:21;;;;;;;23.40;7.07;;;;;;;;;;5093115;28;20024;-77
2022/10/27 06:36:46;;;;;;;21.00;7.65;;;;;;;;;;5093405;28;20035;-76
2022/10/27 06:39:11;;;;;;;30.38;7.10;;;;;;;;;;5092690;28;20036;-78
2022/10/27 06:41:37;;;;;;;25.73;7.63;;;;;;;;;;5092039;28;20024;-78
2022/10/27 06:44:02;;;;;;;19.15;7.13;;;;;;;;;;5092238;28;20027;-74
2022/10/27 06:46:28;;;;;;;23.13;7.63;;;;;;;;;;5091744;28;20020;-74
2022/10/27 06:48:53;;;;;;;21.85;7.28;;;;;;;;;;5092141;28;20031;-80
2022/10/27 06:51:18;;;;;;;29.98;7.10;;;;;;;;;;5092020;28;20423;-85
2022/10/27 06:53:44;;;;;;;26.13;7.65;;;;;;;;;;5091807;28;20031;-86
2022/10/27 06:56:09;;;;;;;26.05;8.00;;;;;;;;;;5093476;28;20475;-85
2022/10/27 06:58:38;;;;;;;25.55;7.85;;;;;;;;;;5093084;28;20027;-84
2022/10/27 07:01:04;;;;;;;21.95;7.32;;;;;;;;;;5093220;28;20028;-83
2022/10/27 07:03:33;;;;;;;23.58;8.00;;;;;;;;;;5093563;28;20039;-85
2022/10/27 07:05:58;;;;;;;26.05;7.45;;;;;;;;;;5095084;28;20482;-85
2022/10/27 07:08:24;;;;;;;22.20;8.25;;;;;;;;;;5100688;28;20311;-87
2022/10/27 07:10:51;;;;;;;21.65;7.72;;;;;;;;;;5098071;28;20313;-83
2022/10/27 07:13:16;;;;;;;20.50;7.22;;;;;;;;;;5094199;28;20108;-82
2022/10/27 07:15:42;;;;;;;24.27;7.57;;;;;;;;;;5093671;28;20633;-77
2022/10/27 07:18:09;;;;;;;27.05;7.10;;;;;;;;;;5090875;28;20385;-77
2022/10/27 07:20:38;;;;;;;22.98;7.63;;;;;;;;;;5091501;28;20503;-77
2022/10/27 07:23:03;;;;;;;27.30;7.65;;;;;;;;;;5091199;28;20028;-80
2022/10/27 07:25:30;;;;;;;20.02;6.90;;;;;;;;;;5091267;28;20054;-79
2022/10/27 07:27:57;;;;;;;24.55;6.97;;;;;;;;;;5091112;28;20052;-78
2022/10/27 07:30:24;;;;;;;25.30;7.45;;;;;;;;;;5093447;28;20030;-78
2022/10/27 07:32:49;;;;;;;22.02;6.95;;;;;;;;;;5074950;28;20030;-76
2022/10/27 07:35:15;;;;;;;26.33;6.97;;;;;;;;;;5093057;28;20021;-76
2022/10/27 07:37:45;;;;;;;18.50;6.97;;;;;;;;;;5090742;28;20028;-76
2022/10/27 07:40:12;;;;;;;28.33;7.50;;;;;;;;;;5095729;28;20020;-79
2022/10/27 07:42:45;;;;;;;18.98;6.82;;;;;;;;;;5092786;28;20024;-78
2022/10/27 07:45:12;;;;;;;24.00;7.30;;;;;;;;;;5094071;28;20471;-76
2022/10/27 07:47:45;;;;;;;18.58;6.70;;;;;;;;;;5094481;28;20024;-80
2022/10/27 07:50:10;;;;;;;22.77;7.47;;;;;;;;;;5091869;28;20700;-80
2022/10/27 07:52:46;;;;;;;19.67;6.78;;;;;;;;;;5090306;28;20103;-86
2022/10/27 07:55:13;;;;;;;23.50;6.75;;;;;;;;;;5068916;28;20408;-81
2022/10/27 07:57:40;;;;;;;26.08;6.50;;;;;;;;;;5073128;28;20054;-80
2022/10/27 08:00:11;;;;;;;24.15;6.68;;;;;;;;;;5074198;28;20028;-84
2022/10/27 08:02:38;;;;;;;18.17;6.85;;;;;;;;;;5075782;28;20450;-81
2022/10/27 08:05:04;;;;;;;18.92;7.00;;;;;;;;;;5070358;28;20530;-81
2022/10/27 08:07:30;;;;;;;19.55;6.93;;;;;;;;;;5072823;28;20036;-84
2022/10/27 08:09:55;;;;;;;17.60;6.85;;;;;;;;;;5071245;28;20028;-81
2022/10/27 08:12:21;;;;;;;21.17;6.35;;;;;;;;;;5069867;28;20098;-77
2022/10/27 08:14:47;;;;;;;20.95;6.90;;;;;;;;;;5070077;28;20111;-78
2022/10/27 08:17:13;;;;;;;21.48;6.03;;;;;;;;;;5072372;28;20059;-83
2022/10/27 08:19:39;;;;;;;19.48;6.50;;;;;;;;;;5070115;28;20055;-80
2022/10/27 08:22:04;;;;;;;21.35;6.65;;;;;;;;;;5071739;28;20492;-79
2022/10/27 08:24:30;;;;;;;17.73;6.47;;;;;;;;;;5069995;28;20047;-76
2022/10/27 08:26:55;;;;;;;18.05;6.28;;;;;;;;;;5068709;28;20024;-78
2022/10/27 08:29:20;;;;;;;21.92;6.72;;;;;;;;;;5069705;28;20024;-78
2022/10/27 08:31:46;;;;;;;15.93;5.95;;;;;;;;;;5069892;28;20066;-77
2022/10/27 08:34:11;;;;;;;25.50;6.20;;;;;;;;;;5073633;28;20096;-78
2022/10/27 08:36:39;;;;;;;22.05;6.30;;;;;;;;;;5070069;28;20033;-77
2022/10/27 08:39:07;;;;;;;20.25;6.22;;;;;;;;;;5071811;28;20021;-77
2022/10/27 08:41:44;;;;;;;20.15;6.10;;;;;;;;;;5058841;28;20052;-77
2022/10/27 08:44:39;;;;;;;21.13;5.97;;;;;;;;;;5054700;28;20039;-78
2022/10/27 08:47:11;;;;;;;20.00;5.68;;;;;;;;;;5055697;28;20045;-76
2022/10/27 08:49:51;;;;;;;19.75;5.50;;;;;;;;;;5054123;28;20037;-76
2022/10/27 08:52:39;;;;;;;28.27;6.05;;;;;;;;;;5049742;28;20025;-78
2022/10/27 08:55:14;;;;;;;22.85;5.93;;;;;;;;;;5060779;28;20044;-80
2022/10/27 08:57:46;;;;;;;20.25;5.85;;;;;;;;;;5066310;28;20043;-80
2022/10/27 09:00:12;;;;;;;16.77;5.72;;;;;;;;;;5084778;28;20016;-79
2022/10/27 09:03:08;;;;;;;21.20;5.97;;;;;;;;;;5089050;28;20028;-81
2022/10/27 09:06:03;;;;;;;19.25;5.90;;;;;;;;;;5070637;28;20032;-80
2022/10/27 09:08:49;;;;;;;19.20;5.68;;;;;;;;;;5066193;28;20078;-81
2022/10/27 09:11:33;;;;;;;20.30;5.68;;;;;;;;;;5070517;28;20032;-81
2022/10/27 09:14:45;;;;;;;20.75;5.50;;;;;;;;;;5071213;28;20024;-82
2022/10/27 09:17:40;;;;;;;18.40;5.70;;;;;;;;;;5063480;28;20510;-81
2022/10/27 09:20:24;;;;;;;25.10;5.97;;;;;;;;;;5090803;28;20043;-80
2022/10/27 09:22:52;;;;;;;17.73;5.60;;;;;;;;;;5098259;28;20035;-82
2022/10/27 09:25:20;;;;;;;21.80;6.10;;;;;;;;;;5094876;28;20414;-77
2022/10/27 09:27:50;;;;;;;22.70;5.72;;;;;;;;;;5089208;28;20055;-78
2022/10/27 09:30:16;;;;;;;14.30;5.07;;;;;;;;;;5089720;28;20369;-80
2022/10/27 09:32:47;;;;;;;20.08;5.25;;;;;;;;;;5089523;28;20098;-79
2022/10/27 09:35:20;;;;;;;22.67;5.45;;;;;;;;;;5094124;28;20099;-77
2022/10/27 09:37:46;;;;;;;20.23;5.68;;;;;;;;;;5099233;28;20063;-79
2022/10/27 09:40:14;;;;;;;25.00;5.68;;;;;;;;;;5092255;28;20096;-79
2022/10/27 09:42:40;;;;;;;17.15;5.55;;;;;;;;;;5071610;28;20027;-79
2022/10/27 09:45:19;;;;;;;17.33;4.85;;;;;;;;;;5072232;28;20029;-79
2022/10/27 09:47:49;;;;;;;17.80;5.13;;;;;;;;;;5072920;28;20049;-80
2022/10/27 09:50:24;;;;;;;19.33;5.35;;;;;;;;;;5071287;28;20503;-79
2022/10/27 09:52:50;;;;;;;18.27;5.60;;;;;;;;;;5072621;28;20055;-80
2022/10/27 09:55:16;;;;;;;19.52;5.70;;;;;;;;;;5074026;28;20048;-84
2022/10/27 09:57:44;;;;;;;18.25;5.43;;;;;;;;;;5073128;28;20562;-81
2022/10/27 10:00:16;;;;;;;22.45;5.82;;;;;;;;;;5072670;28;20031;-76
2022/10/27 10:03:18;;;;;;;25.23;5.28;;;;;;;;;;5072517;28;20024;-78
2022/10/27 10:05:46;;;;;;;21.70;5.35;;;;;;;;;;5072209;28;20028;-77
2022/10/27 10:08:26;;;;;;;17.50;5.03;;;;;;;;;;5072351;28;20500;-75
2022/10/27 10:10:56;;;;;;;18.42;5.30;;;;;;;;;;5072517;28;20111;-82
2022/10/27 10:13:22;;;;;;;18.88;5.20;;;;;;;;;;5075996;28;20084;-77
2022/10/27 10:16:04;;;;;;;21.45;5.63;;;;;;;;;;5074484;28;20535;-76
2022/10/27 10:18:32;;;;;;;15.93;5.15;;;;;;;;;;5076803;28;20074;-77
2022/10/27 10:21:07;;;;;;;20.00;5.65;;;;;;;;;;5073898;28;20116;-77
2022/10/27 10:23:36;;;;;;;21.77;6.03;;;;;;;;;;5071980;28;20480;-78
2022/10/27 10:26:04;;;;;;;19.30;6.00;;;;;;;;;;5077387;28;20064;-78
2022/10/27 10:28:39;;;;;;;26.45;5.65;;;;;;;;;;5058997;28;20036;-82
2022/10/27 10:31:08;;;;;;;19.45;5.85;;;;;;;;;;5054754;28;20055;-81
2022/10/27 10:33:39;;;;;;;17.80;5.28;;;;;;;;;;5090790;28;20028;-79
2022/10/27 10:36:26;;;;;;;20.42;5.63;;;;;;;;;;5092960;28;20400;-80
2022/10/27 10:38:56;;;;;;;18.95;5.35;;;;;;;;;;5063742;28;20024;-79
2022/10/27 10:41:23;;;;;;;20.98;6.30;;;;;;;;;;5089562;28;20591;-81
2022/10/27 10:44:13;;;;;;;23.25;5.65;;;;;;;;;;5081826;28;20116;-82
2022/10/27 10:46:49;;;;;;;17.92;5.57;;;;;;;;;;5066682;28;20067;-82
2022/10/27 10:49:27;;;;;;;18.15;5.65;;;;;;;;;;5091257;28;20028;-80
2022/10/27 10:51:56;;;;;;;15.05;5.50;;;;;;;;;;5073662;28;20032;-80
2022/10/27 10:54:36;;;;;;;18.73;5.45;;;;;;;;;;5091297;28;20036;-79
2022/10/27 10:57:02;;;;;;;18.73;6.00;;;;;;;;;;5089898;28;20035;-79
2022/10/27 10:59:30;;;;;;;17.30;5.43;;;;;;;;;;5071004;28;20024;-83
2022/10/27 11:02:23;;;;;;;19.05;5.78;;;;;;;;;;5070869;28;20047;-82
2022/10/27 11:04:49;;;;;;;17.27;5.85;;;;;;;;;;5070980;28;20092;-78
2022/10/27 11:07:31;;;;;;;23.40;5.57;;;;;;;;;;5071189;28;20108;-76
2022/10/27 11:10:16;;;;;;;16.33;5.20;;;;;;;;;;5088288;28;20430;-78
2022/10/27 11:12:44;;;;;;;19.33;5.82;;;;;;;;;;5091474;28;20424;-81
2022/10/27 11:15:31;;;;;;;17.33;5.13;;;;;;;;;;5091440;28;20381;-80
2022/10/27 11:18:13;;;;;;;17.10;5.40;;;;;;;;;;5091512;28;20055;-83
2022/10/27 11:20:40;;;;;;;16.65;4.78;;;;;;;;;;5091768;28;20064;-81
2022/10/27 11:23:20;;;;;;;15.93;5.18;;;;;;;;;;5091236;28;20081;-79
2022/10/27 11:25:46;;;;;;;19.90;5.00;;;;;;;;;;5077513;28;20035;-85
2022/10/27 11:28:22;;;;;;;16.40;5.15;;;;;;;;;;5102413;28;20091;-82
2022/10/27 11:31:16;;;;;;;17.35;5.05;;;;;;;;;;5094963;28;20499;-83
2022/10/27 11:34:09;;;;;;;13.27;4.53;;;;;;;;;;5074541;28;20031;-83
2022/10/27 11:36:46;;;;;;;16.88;5.05;;;;;;;;;;5095184;28;20032;-79
2022/10/27 11:39:20;;;;;;;20.48;5.18;;;;;;;;;;5090963;28;20608;-82
2022/10/27 11:41:53;;;;;;;18.25;5.18;;;;;;;;;;5093928;28;20561;-81
2022/10/27 11:44:43;;;;;;;18.70;4.95;;;;;;;;;;5091512;28;20012;-80
2022/10/27 11:47:30;;;;;;;17.27;5.07;;;;;;;;;;5091453;28;20040;-78
2022/10/27 11:50:09;;;;;;;19.30;5.35;;;;;;;;;;5080076;28;20073;-78
2022/10/27 11:52:41;;;;;;;14.18;4.80;;;;;;;;;;5099947;28;20304;-79
2022/10/27 11:55:10;;;;;;;18.48;5.28;;;;;;;;;;5099398;28;20051;-80
2022/10/27 11:57:47;;;;;;;15.95;4.63;;;;;;;;;;5091532;28;20130;-78
2022/10/27 12:00:27;;;;;;;16.70;4.93;;;;;;;;;;5090702;28;20387;-80
2022/10/27 12:03:15;;;;;;;18.13;4.90;;;;;;;;;;5095009;28;20091;-78
2022/10/27 12:05:48;;;;;;;20.55;5.63;;;;;;;;;;5090257;28;20601;-77
2022/10/27 12:08:52;;;;;;;17.15;4.88;;;;;;;;;;5090782;28;20032;-75
2022/10/27 12:11:35;;;;;;;22.40;5.38;;;;;;;;;;5090184;28;20031;-79
2022/10/27 12:14:06;;;;;;;18.05;5.20;;;;;;;;;;5089810;28;20549;-77
2022/10/27 12:16:37;;;;;;;16.85;4.90;;;;;;;;;;5089851;28;20107;-78
2022/10/27 12:19:22;;;;;;;17.17;5.43;;;;;;;;;;5090359;28;20031;-77
2022/10/27 12:22:02;;;;;;;19.98;5.10;;;;;;;;;;5090271;28;20434;-82
2022/10/27 12:24:47;;;;;;;16.00;5.00;;;;;;;;;;5090310;28;20487;-79
2022/10/27 12:27:25;;;;;;;14.88;4.75;;;;;;;;;;5080492;28;20396;-77
2022/10/27 12:29:55;;;;;;;19.88;4.72;;;;;;;;;;5071490;28;20036;-80
2022/10/27 12:32:34;;;;;;;22.65;5.15;;;;;;;;;;5073387;28;20456;-78
2022/10/27 12:35:13;;;;;;;21.45;5.35;;;;;;;;;;5084776;28;20037;-79
2022/10/27 12:38:06;;;;;;;20.17;5.57;;;;;;;;;;5073042;28;20067;-79
2022/10/27 12:40:44;;;;;;;13.75;4.68;;;;;;;;;;5069646;28;20278;-79
2022/10/27 12:43:32;;;;;;;20.00;4.32;;;;;;;;;;5071833;28;20036;-80
2022/10/27 12:46:12;;;;;;;13.65;4.60;;;;;;;;;;5089439;28;20032;-82
2022/10/27 12:49:21;;;;;;;17.70;4.47;;;;;;;;;;5089757;28;20035;-80
2022/10/27 12:52:17;;;;;;;22.67;4.90;;;;;;;;;;5071523;28;20513;-83
2022/10/27 12:55:00;;;;;;;14.15;4.53;;;;;;;;;;5089870;28;20484;-81
2022/10/27 12:57:56;;;;;;;19.02;4.40;;;;;;;;;;5089766;28;20028;-81
2022/10/27 13:00:24;;;;;;;17.40;4.53;;;;;;;;;;5068639;28;20028;-81
2022/10/27 13:03:24;;;;;;;18.80;4.28;;;;;;;;;;5051476;28;20471;-81
2022/10/27 13:06:08;;;;;;;19.77;4.63;;;;;;;;;;5069268;28;20066;-80
2022/10/27 13:09:01;;;;;;;14.68;4.50;;;;;;;;;;5051289;28;20033;-82
2022/10/27 13:11:40;;;;;;;19.08;4.78;;;;;;;;;;5071892;28;20035;-81
2022/10/27 13:14:20;;;;;;;21.13;4.90;;;;;;;;;;5073536;28;20031;-82
2022/10/27 13:16:49;;;;;;;;;;;;;;;;;;5055388;28;20545;-79
2022/10/27 13:19:35;;;;;;;16.23;4.70;;;;;;;;;;5073346;28;19912;-81
2022/10/27 13:22:37;;;;;;;15.43;4.65;;;;;;;;;;5073070;28;20036;-81
2022/10/27 13:25:37;;;;;;;14.70;4.53;;;;;;;;;;5073221;28;20032;-80
2022/10/27 13:28:15;;;;;;;15.82;5.15;;;;;;;;;;5071414;28;20056;-80
2022/10/27 13:30:43;;;;;;;16.92;4.88;;;;;;;;;;5053976;28;20126;-82
2022/10/27 13:33:31;;;;;;;17.27;4.68;;;;;;;;;;5073641;28;20037;-78
2022/10/27 13:36:20;;;;;;;18.10;4.97;;;;;;;;;;5072615;28;20033;-80
2022/10/27 13:38:50;;;;;;;23.00;5.15;;;;;;;;;;5072972;28;20035;-83
2022/10/27 13:41:50;;;;;;;18.67;5.30;;;;;;;;;;5072531;28;20103;-81
2022/10/27 13:44:27;;;;;;;16.35;4.57;;;;;;;;;;5072836;28;20036;-80
2022/10/27 13:47:01;;;;;;;22.80;5.47;;;;;;;;;;5072660;28;20024;-79
2022/10/27 13:49:39;;;;;;;17.60;5.05;;;;;;;;;;5054613;28;20117;-80
2022/10/27 13:52:25;;;;;;;23.42;4.88;;;;;;;;;;5071982;28;20021;-78
2022/10/27 13:55:01;;;;;;;14.75;4.88;;;;;;;;;;5084765;28;20043;-81
2022/10/27 13:57:53;;;;;;;18.08;4.93;;;;;;;;;;5075819;28;20036;-80
2022/10/27 14:00:21;;;;;;;22.25;5.40;;;;;;;;;;5077079;28;20384;-79
2022/10/27 14:03:09;;;;;;;19.65;5.03;;;;;;;;;;5091291;28;20028;-80
2022/10/27 14:05:45;;;;;;;17.52;4.88;;;;;;;;;;5092657;28;20032;-79
2022/10/27 14:08:32;;;;;;;19.27;4.95;;;;;;;;;;5092482;28;20020;-80
2022/10/27 14:11:10;;;;;;;14.00;4.82;;;;;;;;;;5072267;28;20039;-80
2022/10/27 14:13:41;;;;;;;19.02;5.35;;;;;;;;;;5072112;28;20124;-79
2022/10/27 14:16:12;;;;;;;15.70;5.30;;;;;;;;;;5054108;28;20090;-78
2022/10/27 14:18:38;;;;;;;15.50;5.00;;;;;;;;;;5071969;28;20021;-77
2022/10/27 14:21:24;;;;;;;19.85;5.40;;;;;;;;;;5071712;28;20451;-77
2022/10/27 14:23:50;;;;;;;15.68;5.28;;;;;;;;;;5072173;28;20024;-81
2022/10/27 14:26:35;;;;;;;20.63;5.07;;;;;;;;;;5079419;28;20729;-80
2022/10/27 14:29:01;;;;;;;16.25;5.00;;;;;;;;;;5091006;28;20089;-78
2022/10/27 14:31:29;;;;;;;19.30;4.93;;;;;;;;;;5091352;28;20167;-78
2022/10/27 14:33:55;;;;;;;18.75;5.00;;;;;;;;;;5091727;28;20020;-75
2022/10/27 14:36:23;;;;;;;15.63;4.60;;;;;;;;;;5091747;28;20105;-76
2022/10/27 14:38:58;;;;;;;17.90;4.88;;;;;;;;;;5092112;28;20031;-78
2022/10/27 14:41:30;;;;;;;18.08;4.80;;;;;;;;;;5091984;28;20090;-77
2022/10/27 14:43:58;;;;;;;16.88;5.00;;;;;;;;;;5092143;28;20055;-77
2022/10/27 14:46:27;;;;;;;17.13;4.95;;;;;;;;;;5091748;28;20026;-78
2022/10/27 14:48:59;;;;;;;17.40;4.80;;;;;;;;;;5091482;28;20430;-82
2022/10/27 14:51:26;;;;;;;18.88;4.70;;;;;;;;;;5091548;28;20020;-78
2022/10/27 14:53:53;;;;;;;17.20;4.82;;;;;;;;;;5091671;28;20027;-76
2022/10/27 14:56:23;;;;;;;14.73;5.07;;;;;;;;;;5091611;28;20111;-76
2022/10/27 14:59:03;;;;;;;16.00;4.40;;;;;;;;;;5087658;28;20042;-73